createdAt,value
2018-05-08T00:01:53.683Z,21.40
2018-05-08T00:04:21.786Z,21.37
2018-05-08T00:06:49.871Z,21.37
2018-05-08T00:09:23.571Z,21.35
2018-05-08T00:11:57.155Z,21.26
2018-05-08T00:14:25.245Z,21.21
2018-05-08T00:16:53.331Z,21.16
2018-05-08T00:19:21.445Z,21.11
2018-05-08T00:21:49.528Z,21.05
2018-05-08T00:24:17.659Z,21.02
2018-05-08T00:26:46.551Z,20.94
2018-05-08T00:29:14.643Z,20.88
2018-05-08T00:31:42.814Z,20.86
2018-05-08T00:34:10.911Z,20.77
2018-05-08T00:36:39.775Z,20.68
2018-05-08T00:39:07.979Z,20.65
2018-05-08T00:41:36.046Z,20.64
2018-05-08T00:44:04.131Z,20.55
2018-05-08T00:46:32.215Z,20.50
2018-05-08T00:49:00.315Z,20.54
2018-05-08T00:51:28.397Z,20.47
2018-05-08T00:53:56.491Z,20.44
2018-05-08T00:56:25.415Z,20.39
2018-05-08T00:58:53.504Z,20.37
2018-05-08T01:01:21.630Z,20.39
2018-05-08T01:03:50.199Z,20.36
2018-05-08T01:06:18.283Z,20.30
2018-05-08T01:08:46.368Z,20.28
2018-05-08T01:11:15.181Z,20.30
2018-05-08T01:13:43.270Z,20.25
2018-05-08T01:16:11.355Z,20.21
2018-05-08T01:18:39.461Z,20.15
2018-05-08T01:21:07.530Z,20.16
2018-05-08T01:23:35.624Z,20.05
2018-05-08T01:26:03.723Z,20.07
2018-05-08T01:28:31.803Z,19.99
2018-05-08T01:30:59.893Z,19.88
2018-05-08T01:33:28.024Z,19.86
2018-05-08T01:35:56.165Z,19.87
2018-05-08T01:38:24.239Z,19.78
2018-05-08T01:40:52.395Z,19.82
2018-05-08T01:43:20.539Z,19.74
2018-05-08T01:45:48.567Z,19.75
2018-05-08T01:48:17.395Z,19.65
2018-05-08T02:03:45.505Z,19.49
2018-05-08T02:06:13.578Z,19.51
2018-05-08T02:08:44.693Z,19.57
2018-05-08T02:11:12.790Z,19.53
2018-05-08T02:13:40.929Z,19.54
2018-05-08T02:16:09.020Z,19.45
2018-05-08T02:18:37.101Z,19.40
2018-05-08T02:21:05.192Z,19.48
2018-05-08T02:23:33.625Z,19.36
2018-05-08T02:26:01.704Z,19.43
2018-05-08T02:28:29.791Z,19.33
2018-05-08T02:30:57.901Z,19.43
2018-05-08T02:33:26.326Z,19.32
2018-05-08T02:35:54.488Z,19.22
2018-05-08T02:38:22.570Z,19.22
2018-05-08T02:40:50.665Z,19.20
2018-05-08T02:43:18.770Z,19.02
2018-05-08T02:45:46.874Z,19.08
2018-05-08T02:48:15.020Z,19.11
2018-05-08T02:50:43.116Z,19.08
2018-05-08T02:53:11.211Z,19.03
2018-05-08T02:55:39.287Z,18.92
2018-05-08T02:58:07.386Z,19.18
2018-05-08T03:00:35.784Z,19.35
2018-05-08T03:03:03.872Z,19.40
2018-05-08T03:05:31.986Z,19.48
2018-05-08T03:08:00.074Z,19.45
2018-05-08T03:10:28.760Z,19.39
2018-05-08T03:12:56.852Z,19.37
2018-05-08T03:15:24.941Z,19.29
2018-05-08T03:17:53.041Z,19.32
2018-05-08T03:20:21.123Z,19.23
2018-05-08T03:22:49.199Z,19.25
2018-05-08T03:25:17.316Z,19.28
2018-05-08T03:27:45.409Z,19.34
2018-05-08T03:30:14.292Z,19.35
2018-05-08T03:32:42.476Z,19.26
2018-05-08T03:35:11.156Z,19.26
2018-05-08T03:37:40.248Z,19.25
2018-05-08T03:40:08.359Z,19.18
2018-05-08T03:42:37.243Z,19.05
2018-05-08T03:45:05.375Z,18.98
2018-05-08T03:47:33.468Z,18.94
2018-05-08T03:50:01.563Z,18.86
2018-05-08T03:52:29.667Z,18.89
2018-05-08T03:54:58.856Z,18.84
2018-05-08T03:57:27.709Z,18.87
2018-05-08T03:59:55.776Z,18.81
2018-05-08T04:15:23.914Z,18.28
2018-05-08T04:17:52.022Z,18.23
2018-05-08T04:20:21.470Z,18.13
2018-05-08T04:22:50.315Z,18.07
2018-05-08T04:25:20.376Z,18.03
2018-05-08T04:27:48.728Z,18.08
2018-05-08T04:30:16.901Z,18.09
2018-05-08T04:32:44.996Z,18.16
2018-05-08T04:35:13.088Z,18.13
2018-05-08T04:37:41.206Z,18.07
2018-05-08T04:40:09.290Z,18.14
2018-05-08T04:42:37.383Z,18.08
2018-05-08T04:45:05.504Z,18.17
2018-05-08T04:47:33.576Z,18.22
2018-05-08T04:50:01.666Z,18.20
2018-05-08T04:52:29.808Z,18.21
2018-05-08T04:54:57.912Z,18.26
2018-05-08T04:57:26.120Z,18.24
2018-05-08T04:59:59.852Z,18.22
2018-05-08T05:02:27.961Z,18.22
2018-05-08T05:04:56.048Z,18.24
2018-05-08T05:07:24.168Z,18.24
2018-05-08T05:09:52.248Z,18.25
2018-05-08T05:12:20.354Z,18.30
2018-05-08T05:14:48.451Z,18.34
2018-05-08T05:17:16.612Z,18.40
2018-05-08T05:19:44.716Z,18.43
2018-05-08T05:22:12.898Z,18.48
2018-05-08T05:24:40.997Z,18.52
2018-05-08T05:27:14.602Z,18.54
2018-05-08T05:29:48.122Z,18.61
2018-05-08T05:32:16.238Z,18.52
2018-05-08T05:34:45.125Z,18.57
2018-05-08T05:37:13.231Z,18.59
2018-05-08T05:39:42.363Z,18.54
2018-05-08T05:42:10.458Z,18.64
2018-05-08T05:44:44.011Z,18.75
2018-05-08T05:47:12.122Z,18.79
2018-05-08T05:49:40.222Z,18.79
2018-05-08T05:52:08.340Z,18.73
2018-05-08T05:54:41.413Z,18.79
2018-05-08T05:57:09.789Z,18.84
2018-05-08T05:59:38.799Z,18.83
2018-05-08T06:02:06.915Z,18.79
2018-05-08T06:04:35.003Z,18.90
2018-05-08T06:07:03.118Z,18.98
2018-05-08T06:09:31.231Z,19.03
2018-05-08T06:11:59.372Z,19.04
2018-05-08T06:14:27.472Z,19.07
2018-05-08T06:16:55.624Z,19.08
2018-05-08T06:19:24.487Z,19.13
2018-05-08T06:21:52.600Z,19.15
2018-05-08T06:24:22.068Z,19.16
2018-05-08T06:26:50.185Z,19.23
2018-05-08T06:29:18.331Z,19.24
2018-05-08T06:31:46.444Z,19.33
2018-05-08T06:34:14.852Z,19.30
2018-05-08T06:36:48.504Z,19.32
2018-05-08T06:39:22.698Z,19.44
2018-05-08T06:41:50.733Z,19.54
2018-05-08T06:44:18.889Z,19.61
2018-05-08T06:46:47.770Z,19.67
2018-05-08T06:49:15.787Z,19.86
2018-05-08T06:51:43.879Z,20.15
2018-05-08T06:54:12.971Z,20.50
2018-05-08T06:56:41.079Z,20.97
2018-05-08T06:59:09.167Z,21.37
2018-05-08T07:01:37.264Z,21.85
2018-05-08T07:04:05.380Z,22.14
2018-05-08T07:06:33.499Z,22.73
2018-05-08T07:09:01.608Z,23.19
2018-05-08T07:11:29.751Z,23.53
2018-05-08T07:13:57.883Z,23.73
2018-05-08T07:16:31.582Z,24.25
2018-05-08T07:28:45.261Z,25.14
2018-05-08T07:31:13.353Z,24.86
2018-05-08T07:33:41.546Z,24.50
2018-05-08T07:36:09.624Z,24.77
2018-05-08T07:38:37.725Z,25.03
2018-05-08T07:41:05.899Z,24.82
2018-05-08T07:43:34.010Z,24.06
2018-05-08T07:46:02.461Z,24.15
2018-05-08T07:48:30.559Z,24.14
2018-05-08T07:50:58.687Z,24.06
2018-05-08T07:53:27.584Z,23.83
2018-05-08T07:55:55.684Z,23.58
2018-05-08T07:58:24.622Z,23.74
2018-05-08T08:00:52.775Z,23.43
2018-05-08T08:03:20.907Z,23.47
2018-05-08T08:05:48.975Z,23.34
2018-05-08T08:08:17.428Z,23.17
2018-05-08T08:10:45.564Z,23.38
2018-05-08T08:13:19.207Z,23.38
2018-05-08T08:15:47.683Z,23.42
2018-05-08T08:18:15.854Z,23.37
2018-05-08T08:20:43.959Z,23.35
2018-05-08T08:23:12.068Z,23.35
2018-05-08T08:25:40.164Z,23.51
2018-05-08T08:28:08.346Z,23.37
2018-05-08T08:30:36.447Z,23.31
2018-05-08T08:33:04.553Z,23.20
2018-05-08T08:35:32.790Z,23.27
2018-05-08T08:38:00.820Z,23.27
2018-05-08T08:40:28.911Z,23.45
2018-05-08T08:42:57.347Z,23.47
2018-05-08T08:45:25.479Z,23.48
2018-05-08T08:47:53.646Z,23.36
2018-05-08T08:50:21.717Z,23.36
2018-05-08T08:52:49.837Z,23.36
2018-05-08T08:55:17.943Z,23.32
2018-05-08T08:57:46.047Z,23.32
2018-05-08T09:00:14.229Z,23.35
2018-05-08T09:02:42.322Z,23.45
2018-05-08T09:05:10.418Z,23.40
2018-05-08T09:07:38.532Z,23.45
2018-05-08T09:10:06.630Z,23.43
2018-05-08T09:12:34.804Z,23.44
2018-05-08T09:15:02.896Z,23.37
2018-05-08T09:17:31.044Z,23.43
2018-05-08T09:19:59.124Z,23.60
2018-05-08T09:22:27.228Z,23.61
2018-05-08T09:24:55.314Z,23.62
2018-05-08T09:27:23.471Z,23.70
2018-05-08T09:29:51.545Z,23.73
2018-05-08T09:32:25.104Z,23.85
2018-05-08T09:34:53.204Z,23.84
2018-05-08T09:37:26.889Z,23.80
2018-05-08T09:39:55.060Z,23.76
2018-05-08T09:42:23.184Z,23.80
2018-05-08T09:44:51.295Z,23.78
2018-05-08T09:47:19.400Z,23.73
2018-05-08T09:49:47.488Z,23.69
2018-05-08T09:52:15.584Z,23.77
2018-05-08T09:54:44.188Z,23.91
2018-05-08T09:57:12.320Z,23.96
2018-05-08T09:59:41.008Z,23.87
2018-05-08T10:02:09.186Z,23.84
2018-05-08T10:04:37.279Z,23.99
2018-05-08T10:07:05.368Z,23.98
2018-05-08T10:09:33.458Z,23.97
2018-05-08T10:12:01.895Z,24.02
2018-05-08T10:14:30.135Z,24.11
2018-05-08T10:16:58.239Z,24.32
2018-05-08T10:19:26.450Z,24.34
2018-05-08T10:21:54.508Z,24.27
2018-05-08T10:24:23.303Z,24.18
2018-05-08T10:26:51.412Z,24.23
2018-05-08T10:29:19.540Z,24.21
2018-05-08T10:31:47.630Z,24.22
2018-05-08T10:47:15.834Z,24.24
2018-05-08T10:49:44.066Z,24.28
2018-05-08T10:52:13.151Z,24.27
2018-05-08T10:54:41.254Z,24.33
2018-05-08T10:57:09.438Z,24.41
2018-05-08T10:59:37.542Z,24.43
2018-05-08T11:02:05.683Z,24.44
2018-05-08T11:04:33.800Z,24.42
2018-05-08T11:07:01.991Z,24.52
2018-05-08T11:09:30.108Z,24.68
2018-05-08T11:11:58.208Z,24.67
2018-05-08T11:14:26.320Z,24.64
2018-05-08T11:16:54.414Z,24.58
2018-05-08T11:19:22.509Z,24.72
2018-05-08T11:21:50.666Z,24.67
2018-05-08T11:24:18.764Z,24.67
2018-05-08T11:26:46.975Z,24.68
2018-05-08T11:29:15.027Z,24.73
2018-05-08T11:31:43.102Z,24.85
2018-05-08T11:34:11.286Z,24.85
2018-05-08T11:36:39.376Z,24.78
2018-05-08T11:39:07.462Z,24.82
2018-05-08T11:41:35.586Z,24.87
2018-05-08T11:44:03.687Z,24.89
2018-05-08T11:46:31.774Z,24.83
2018-05-08T11:48:59.923Z,24.89
2018-05-08T11:51:28.014Z,24.99
2018-05-08T11:53:56.997Z,25.03
2018-05-08T11:56:25.125Z,24.98
2018-05-08T11:58:53.222Z,25.01
2018-05-08T12:01:22.261Z,25.03
2018-05-08T12:03:50.443Z,25.04
2018-05-08T12:06:19.196Z,24.95
2018-05-08T12:08:47.288Z,25.06
2018-05-08T12:11:16.301Z,25.09
2018-05-08T12:13:44.403Z,25.09
2018-05-08T12:16:12.514Z,25.12
2018-05-08T12:18:41.300Z,25.16
2018-05-08T12:21:09.704Z,25.28
2018-05-08T12:23:38.717Z,25.25
2018-05-08T12:26:09.535Z,25.25
2018-05-08T12:41:37.707Z,25.31
2018-05-08T12:44:09.356Z,25.30
2018-05-08T12:46:37.463Z,25.44
2018-05-08T12:49:05.543Z,25.61
2018-05-08T12:51:34.321Z,25.75
2018-05-08T12:54:05.343Z,25.87
2018-05-08T12:56:39.098Z,25.88
2018-05-08T12:59:08.069Z,25.80
2018-05-08T13:01:36.807Z,25.80
2018-05-08T13:04:04.936Z,25.81
2018-05-08T13:06:33.119Z,25.96
2018-05-08T13:09:01.208Z,26.01
2018-05-08T13:11:30.151Z,25.86
2018-05-08T13:13:58.309Z,25.91
2018-05-08T13:16:26.442Z,26.00
2018-05-08T13:18:55.137Z,26.03
2018-05-08T13:21:28.856Z,25.98
2018-05-08T13:24:02.493Z,25.91
2018-05-08T13:26:31.006Z,25.99
2018-05-08T13:28:59.432Z,26.04
2018-05-08T13:31:27.488Z,25.99
2018-05-08T13:33:55.606Z,25.91
2018-05-08T13:36:23.733Z,25.87
2018-05-08T13:38:51.868Z,25.89
2018-05-08T13:41:20.104Z,25.92
2018-05-08T13:43:48.193Z,26.03
2018-05-08T13:46:16.340Z,26.21
2018-05-08T13:48:44.453Z,26.30
2018-05-08T13:51:18.164Z,26.33
2018-05-08T13:53:46.309Z,26.18
2018-05-08T13:56:15.231Z,26.08
2018-05-08T13:58:43.924Z,26.11
2018-05-08T14:01:12.008Z,26.19
2018-05-08T14:03:40.167Z,26.16
2018-05-08T14:06:08.271Z,26.15
2018-05-08T14:08:36.376Z,26.16
2018-05-08T14:11:04.541Z,26.28
2018-05-08T14:13:33.403Z,26.26
2018-05-08T14:16:01.511Z,26.28
2018-05-08T14:18:29.602Z,26.27
2018-05-08T14:20:57.698Z,26.27
2018-05-08T14:23:25.795Z,26.25
2018-05-08T14:25:53.879Z,26.20
2018-05-08T14:28:22.441Z,26.27
2018-05-08T14:30:50.581Z,26.33
2018-05-08T14:33:18.666Z,26.35
2018-05-08T14:35:46.797Z,26.25
2018-05-08T14:38:14.888Z,26.31
2018-05-08T14:40:44.489Z,26.40
2018-05-08T14:43:12.579Z,26.43
2018-05-08T14:45:41.676Z,26.44
2018-05-08T14:48:10.725Z,26.58
2018-05-08T14:50:38.825Z,26.71
2018-05-08T14:53:06.903Z,26.77
2018-05-08T14:55:35.034Z,26.86
2018-05-08T14:58:03.172Z,26.73
2018-05-08T15:00:31.295Z,26.81
2018-05-08T15:02:59.378Z,26.82
2018-05-08T15:05:27.477Z,26.80
2018-05-08T15:07:55.556Z,26.86
2018-05-08T15:10:23.675Z,26.83
2018-05-08T15:12:52.297Z,26.86
2018-05-08T15:15:20.403Z,26.83
2018-05-08T15:17:48.515Z,26.84
2018-05-08T15:20:16.627Z,26.79
2018-05-08T15:22:44.921Z,26.88
2018-05-08T15:25:13.130Z,26.89
2018-05-08T15:27:41.191Z,26.88
2018-05-08T15:30:09.285Z,26.87
2018-05-08T15:32:37.409Z,26.81
2018-05-08T15:35:05.730Z,26.81
2018-05-08T15:37:39.653Z,26.80
2018-05-08T15:40:13.294Z,26.77
2018-05-08T15:42:41.385Z,26.83
2018-05-08T15:45:09.470Z,26.79
2018-05-08T15:47:37.595Z,26.81
2018-05-08T15:50:05.728Z,26.81
2018-05-08T15:52:34.169Z,26.77
2018-05-08T15:55:02.315Z,26.76
2018-05-08T15:57:30.448Z,26.68
2018-05-08T15:59:59.187Z,26.67
2018-05-08T16:02:27.387Z,26.72
2018-05-08T16:04:55.475Z,26.86
2018-05-08T16:07:24.107Z,26.96
2018-05-08T16:09:53.318Z,26.93
2018-05-08T16:12:21.513Z,26.84
2018-05-08T16:14:49.867Z,26.69
2018-05-08T16:17:18.049Z,26.74
2018-05-08T16:19:46.183Z,26.77
2018-05-08T16:22:14.813Z,26.77
2018-05-08T16:24:43.718Z,26.74
2018-05-08T16:27:11.827Z,26.80
2018-05-08T16:42:39.960Z,26.54
2018-05-08T16:45:08.405Z,26.56
2018-05-08T16:47:36.483Z,26.47
2018-05-08T16:50:04.607Z,26.43
2018-05-08T16:52:32.804Z,26.44
2018-05-08T16:55:00.921Z,26.51
2018-05-08T16:57:29.359Z,26.52
2018-05-08T16:59:57.471Z,26.44
2018-05-08T17:02:25.596Z,26.43
2018-05-08T17:04:53.764Z,26.36
2018-05-08T17:07:21.904Z,26.36
2018-05-08T17:09:50.044Z,26.29
2018-05-08T17:12:18.155Z,26.28
2018-05-08T17:14:46.256Z,26.28
2018-05-08T17:17:15.449Z,26.25
2018-05-08T17:19:44.505Z,26.21
2018-05-08T17:22:12.602Z,26.23
2018-05-08T17:24:40.710Z,26.24
2018-05-08T17:27:08.812Z,26.22
2018-05-08T17:29:36.912Z,26.14
2018-05-08T17:45:06.005Z,25.92
2018-05-08T17:47:34.676Z,25.84
2018-05-08T17:50:03.519Z,25.86
2018-05-08T17:52:32.445Z,25.82
2018-05-08T17:55:01.250Z,25.79
2018-05-08T18:10:30.290Z,25.41
2018-05-08T18:12:58.425Z,25.38
2018-05-08T18:15:26.608Z,25.41
2018-05-08T18:18:00.764Z,25.38
2018-05-08T18:20:29.975Z,25.36
2018-05-08T18:22:58.124Z,25.29
2018-05-08T18:25:26.265Z,25.19
2018-05-08T18:27:55.064Z,25.15
2018-05-08T18:30:23.226Z,25.14
2018-05-08T18:32:51.392Z,25.13
2018-05-08T18:35:19.493Z,25.02
2018-05-08T18:37:47.609Z,25.01
2018-05-08T18:40:15.735Z,24.97
2018-05-08T18:42:44.445Z,24.93
2018-05-08T18:45:13.187Z,24.91
2018-05-08T18:47:41.273Z,24.90
2018-05-08T18:50:09.420Z,24.85
2018-05-08T18:52:37.555Z,24.80
2018-05-08T18:55:05.680Z,24.75
2018-05-08T18:57:33.908Z,24.71
2018-05-08T19:00:07.860Z,24.57
2018-05-08T19:02:41.381Z,24.52
2018-05-08T19:05:09.515Z,24.52
2018-05-08T19:07:37.639Z,24.49
2018-05-08T19:10:05.803Z,24.46
2018-05-08T19:12:35.493Z,24.39
2018-05-08T19:15:09.323Z,24.25
2018-05-08T19:17:37.395Z,24.23
2018-05-08T19:22:38.589Z,24.18
2018-05-08T19:25:06.706Z,24.16
2018-05-08T19:27:34.803Z,23.94
2018-05-08T19:30:08.384Z,23.80
2018-05-08T19:32:36.483Z,23.85
2018-05-08T19:35:11.273Z,23.59
2018-05-08T19:37:45.096Z,23.58
2018-05-08T19:40:13.245Z,23.56
2018-05-08T19:42:41.392Z,23.51
2018-05-08T19:45:09.845Z,23.57
2018-05-08T19:47:38.337Z,23.53
2018-05-08T19:50:06.707Z,23.44
2018-05-08T19:52:34.872Z,23.43
2018-05-08T19:55:02.916Z,23.38
2018-05-08T19:57:31.027Z,23.44
2018-05-08T19:59:59.216Z,23.36
2018-05-08T20:02:27.305Z,23.17
2018-05-08T20:04:55.400Z,23.23
2018-05-08T20:07:23.532Z,23.19
2018-05-08T20:09:51.628Z,23.22
2018-05-08T20:12:19.775Z,23.25
2018-05-08T20:14:47.870Z,23.35
2018-05-08T20:17:15.956Z,23.20
2018-05-08T20:19:44.269Z,23.11
2018-05-08T20:22:12.379Z,22.84
2018-05-08T20:24:41.288Z,22.74
2018-05-08T20:27:09.407Z,22.63
2018-05-08T20:29:37.498Z,22.55
2018-05-08T20:32:05.598Z,22.48
2018-05-08T20:34:33.711Z,22.37
2018-05-08T20:37:02.596Z,22.46
2018-05-08T20:39:31.330Z,22.56
2018-05-08T20:41:59.432Z,22.30
2018-05-08T20:44:27.534Z,22.33
2018-05-08T20:46:55.652Z,22.36
2018-05-08T20:49:23.777Z,22.35
2018-05-08T20:51:57.518Z,22.26
2018-05-08T20:54:31.090Z,22.27
2018-05-08T20:56:59.268Z,22.41
2018-05-08T20:59:27.393Z,22.30
2018-05-08T21:01:55.497Z,22.43
2018-05-08T21:04:23.620Z,22.43
2018-05-08T21:06:52.265Z,22.46
2018-05-08T21:09:20.419Z,22.47
2018-05-08T21:11:49.270Z,22.51
2018-05-08T21:14:17.378Z,22.47
2018-05-08T21:16:45.495Z,22.41
2018-05-08T21:19:13.614Z,22.46
2018-05-08T21:21:41.717Z,22.24
2018-05-08T21:24:09.835Z,22.26
2018-05-08T21:26:37.955Z,22.24
2018-05-08T21:29:06.093Z,22.23
2018-05-08T21:31:34.961Z,22.25
2018-05-08T21:34:03.062Z,22.28
2018-05-08T21:36:31.161Z,22.30
2018-05-08T21:38:59.262Z,22.43
2018-05-08T21:41:28.194Z,22.32
2018-05-08T21:43:56.805Z,22.25
2018-05-08T21:46:24.898Z,22.05
2018-05-08T21:48:53.000Z,22.05
2018-05-08T21:51:21.918Z,22.21
2018-05-08T21:53:50.014Z,22.23
2018-05-08T21:56:18.164Z,22.23
2018-05-08T21:58:46.252Z,22.20
2018-05-08T22:01:14.352Z,22.21
2018-05-08T22:03:42.456Z,22.25
2018-05-08T22:06:10.550Z,22.16
2018-05-08T22:08:38.647Z,22.23
2018-05-08T22:11:06.749Z,22.21
2018-05-08T22:13:35.667Z,22.30
2018-05-08T22:16:03.791Z,22.32
2018-05-08T22:18:31.889Z,22.36
2018-05-08T22:20:59.991Z,22.34
2018-05-08T22:23:28.383Z,22.28
2018-05-08T22:25:56.470Z,22.20
2018-05-08T22:28:30.111Z,22.23
2018-05-08T22:30:58.239Z,22.15
2018-05-08T22:33:26.327Z,21.97
2018-05-08T22:35:54.489Z,22.01
2018-05-08T22:38:22.571Z,22.05
2018-05-08T22:40:51.407Z,21.90
2018-05-08T22:43:19.555Z,21.96
2018-05-08T22:45:47.674Z,22.03
2018-05-08T22:48:15.767Z,22.05
2018-05-08T22:50:43.864Z,22.05
2018-05-08T22:53:11.968Z,21.95
2018-05-08T22:55:40.059Z,21.91
2018-05-08T22:58:08.217Z,21.92
2018-05-08T23:00:36.813Z,22.00
2018-05-08T23:03:04.947Z,22.08
2018-05-08T23:05:33.061Z,21.91
2018-05-08T23:08:01.151Z,21.95
2018-05-08T23:10:29.249Z,22.04
2018-05-08T23:12:57.343Z,21.84
2018-05-08T23:15:25.439Z,21.83
2018-05-08T23:17:53.587Z,21.83
2018-05-08T23:20:21.683Z,21.71
2018-05-08T23:22:49.815Z,21.78
2018-05-08T23:25:17.932Z,21.86
2018-05-08T23:27:46.179Z,21.88
2018-05-08T23:30:14.283Z,21.89
2018-05-08T23:32:42.731Z,21.96
2018-05-08T23:35:11.701Z,22.01
2018-05-08T23:37:40.272Z,21.97
2018-05-08T23:40:08.373Z,21.84
2018-05-08T23:42:36.472Z,21.92
2018-05-08T23:45:04.564Z,21.98
2018-05-08T23:47:32.663Z,21.95
2018-05-08T23:50:00.777Z,22.00
2018-05-08T23:52:28.897Z,21.80
2018-05-08T23:54:57.327Z,21.88
2018-05-08T23:57:25.432Z,21.84
2018-05-08T23:59:54.256Z,21.92
